Terminal Aerodrome Forecast
Issued by NWS Tallahassee, FL

Home | Current Version | Previous Version | Text Only | Print | Product List | Glossary On
Versions: 1 2 3 4 5 6 7 8 9 10 11 12
000
FTUS42 KTAE 301737
TAFTLH
TAF
KTLH 301737Z 3018/3118 27010G18KT P6SM SCT050 BKN100
      TEMPO 3020/3023 VRB15G25KT 3SM TSRA BKN050CB
     FM310200 22005KT P6SM BKN050
     FM310600 25003KT 3SM BR SCT025
     FM310900 00000KT 2SM BR OVC025
     FM311500 27005KT P6SM BKN050=

USA.gov is the U.S. government's official web portal to all federal, state and local government web resources and services.